Capitol Logistics 1122


EBLG
Liège Airport
Liege, BE
UBBB
Heydar Aliyev International Airport
Baku, AZ

Activity Log

Date Flight Route Aircraft Duration
No Flights Yet

Route Details

Aircraft Information
Primary: Boeing 767-300BDSF
Backup: Not Available
Route Data
Distance: 1943nm
Sched. Duration: 4h 29m
Avg. Duration: 0h 00m (-430m)
Times Flown: 0
Recm'd Route: Not Available
Planned Altitude: 35,000ft
Origin Wx: EBLG 282120Z 20018KT 9999 SCT008 BKN010 05/04 Q1005 BECMG BKN008
Dest. Wx: UBBB 282130Z 32028G38KT CAVOK 12/06 Q1012 WS ALL RWY R88/CLRD// NOSIG
Notes:

Financial History
Total Freight: 0lbs
Average Load: 0lbs/flt
Fuel Used: 0lbs
Avg. Fuel Used: 0lbs/flt
Fuel Expense: $0
Avg. Fuel Expense: $0
Avg. Fuel Cost: $0/lbs
Total Gross Income: $0
Pilot Pay: $0
Total Expenses: $0
Total Revenue: $0
Average Revenue: $0